Time;durP1;ratioP1;P1;durP2;ratioP2;P2;SDS_P1;SDS_P2;PMS_P1;PMS_P2;Temp;Humidity;BMP_temperature;BMP_pressure;BME280_temperature;BME280_humidity;BME280_pressure;Samples;Min_cycle;Max_cycle;Signal;HPM_P1;HPM_P2
2023/09/09 00:01:42;;;;;;;46.13;41.42;;;20.00;85.20;;;;;;4943955;28;20035;-77
2023/09/09 00:04:10;;;;;;;44.75;40.35;;;20.00;85.20;;;;;;4938441;28;20444;-78
2023/09/09 00:06:37;;;;;;;42.55;38.35;;;20.00;85.20;;;;;;4944259;28;20117;-77
2023/09/09 00:09:04;;;;;;;44.47;40.10;;;20.00;85.20;;;;;;4942004;28;20509;-77
2023/09/09 00:11:31;;;;;;;46.60;42.00;;;20.00;85.10;;;;;;4940660;28;20034;-78
2023/09/09 00:13:57;;;;;;;44.50;40.13;;;20.00;85.10;;;;;;4960921;28;20035;-78
2023/09/09 00:16:23;;;;;;;46.15;41.55;;;19.90;85.10;;;;;;4962435;28;20047;-78
2023/09/09 00:18:49;;;;;;;48.10;43.53;;;19.90;85.20;;;;;;4943565;28;20042;-77
2023/09/09 00:21:15;;;;;;;46.30;41.60;;;19.90;85.20;;;;;;4943103;28;20023;-77
2023/09/09 00:23:41;;;;;;;45.90;41.40;;;19.80;85.20;;;;;;4941406;28;20039;-77
2023/09/09 00:26:07;;;;;;;45.70;41.30;;;19.80;85.20;;;;;;4943396;28;20043;-77
2023/09/09 00:28:33;;;;;;;45.08;40.65;;;19.80;84.90;;;;;;4942193;28;20263;-77
2023/09/09 00:30:59;;;;;;;42.13;38.05;;;19.80;85.00;;;;;;4946771;28;20385;-76
2023/09/09 00:33:26;;;;;;;38.88;35.08;;;19.70;85.10;;;;;;4939190;28;20178;-77
2023/09/09 00:35:52;;;;;;;41.05;37.08;;;19.70;85.20;;;;;;4944439;28;20091;-77
2023/09/09 00:38:18;;;;;;;40.85;36.95;;;19.70;85.30;;;;;;4943505;28;20047;-78
2023/09/09 00:41:04;;;;;;;42.35;38.13;;;19.70;85.20;;;;;;4940601;28;20050;-76
2023/09/09 00:43:29;;;;;;;38.97;35.25;;;19.60;85.10;;;;;;4933926;28;20061;-77
2023/09/09 00:45:56;;;;;;;43.08;38.95;;;19.60;85.30;;;;;;4941672;28;20549;-80
2023/09/09 00:48:22;;;;;;;41.13;37.13;;;19.60;85.50;;;;;;4943956;28;20034;-77
2023/09/09 00:50:48;;;;;;;42.67;38.38;;;19.60;85.60;;;;;;4940481;28;20031;-77
2023/09/09 00:53:14;;;;;;;44.35;40.05;;;19.60;85.60;;;;;;4942616;28;20043;-77
2023/09/09 00:55:41;;;;;;;49.28;44.45;;;19.60;85.50;;;;;;4948805;28;21673;-78
2023/09/09 00:58:07;;;;;;;48.78;44.08;;;19.60;85.60;;;;;;4951326;28;20080;-79
2023/09/09 01:00:33;;;;;;;46.95;42.53;;;19.60;85.70;;;;;;4941772;28;20111;-78
2023/09/09 01:02:58;;;;;;;47.75;42.95;;;19.60;85.80;;;;;;4955944;28;20150;-79
2023/09/09 01:05:26;;;;;;;46.08;41.70;;;19.60;85.90;;;;;;4947988;28;20145;-78
2023/09/09 01:07:51;;;;;;;52.33;47.33;;;19.60;85.90;;;;;;4939383;28;20517;-77
2023/09/09 01:10:18;;;;;;;52.08;47.08;;;19.60;86.00;;;;;;4951905;28;20031;-79
2023/09/09 01:12:44;;;;;;;47.92;43.33;;;19.60;86.00;;;;;;4948866;28;20027;-78
2023/09/09 01:15:11;;;;;;;49.47;44.70;;;19.50;86.20;;;;;;4946797;28;20061;-79
2023/09/09 01:17:38;;;;;;;50.70;45.80;;;19.50;86.20;;;;;;4942245;28;20448;-78
2023/09/09 01:20:15;;;;;;;47.67;43.15;;;19.50;86.10;;;;;;4949249;28;20051;-77
2023/09/09 01:22:43;;;;;;;47.13;42.50;;;19.50;85.80;;;;;;4947136;28;20040;-77
2023/09/09 01:25:12;;;;;;;47.33;42.53;;;19.40;85.80;;;;;;4958103;28;20039;-78
2023/09/09 01:27:39;;;;;;;44.45;40.08;;;19.40;85.90;;;;;;4946710;28;20051;-77
2023/09/09 01:30:06;;;;;;;47.63;42.92;;;19.40;85.90;;;;;;4942073;28;20031;-77
2023/09/09 01:32:32;;;;;;;52.53;47.35;;;19.40;86.00;;;;;;4954079;28;20553;-78
2023/09/09 01:34:57;;;;;;;50.00;45.30;;;19.30;86.10;;;;;;4952071;28;20118;-76
2023/09/09 01:37:23;;;;;;;54.10;48.65;;;19.30;86.20;;;;;;4944687;28;20055;-77
2023/09/09 01:39:49;;;;;;;48.65;44.05;;;19.30;86.40;;;;;;4957327;28;20090;-77
2023/09/09 01:42:15;;;;;;;47.67;43.10;;;19.40;86.50;;;;;;4954173;28;20575;-77
2023/09/09 01:44:43;;;;;;;52.67;47.60;;;19.20;86.50;;;;;;4954241;28;20979;-77
2023/09/09 01:47:09;;;;;;;53.67;48.35;;;19.30;86.30;;;;;;4944503;28;20046;-77
2023/09/09 01:49:35;;;;;;;52.53;47.70;;;19.20;86.30;;;;;;4938145;28;20043;-78
2023/09/09 01:52:01;;;;;;;50.67;45.78;;;19.20;86.30;;;;;;4936707;28;20151;-78
2023/09/09 01:54:26;;;;;;;54.55;49.35;;;19.20;86.40;;;;;;4941919;28;20078;-77
2023/09/09 01:56:52;;;;;;;55.55;50.08;;;19.20;86.40;;;;;;4938591;28;20039;-78
2023/09/09 01:59:18;;;;;;;60.30;54.38;;;19.20;86.30;;;;;;4940068;28;20034;-77
2023/09/09 02:01:44;;;;;;;56.90;51.47;;;19.20;86.60;;;;;;4940921;28;20027;-77
2023/09/09 02:04:09;;;;;;;57.38;52.08;;;19.20;86.70;;;;;;4938912;28;20028;-77
2023/09/09 02:06:35;;;;;;;57.50;51.92;;;19.10;86.60;;;;;;4941135;28;20053;-78
2023/09/09 02:09:01;;;;;;;58.33;52.63;;;19.10;86.60;;;;;;4938029;28;20716;-77
2023/09/09 02:11:27;;;;;;;54.58;49.17;;;19.10;86.70;;;;;;4934616;28;20028;-77
2023/09/09 02:13:52;;;;;;;55.17;49.78;;;19.10;86.70;;;;;;4939821;28;20439;-77
2023/09/09 02:16:18;;;;;;;50.47;45.55;;;19.10;86.70;;;;;;4942050;28;20085;-77
2023/09/09 02:18:44;;;;;;;48.15;43.38;;;19.10;86.60;;;;;;4937706;28;20050;-77
2023/09/09 02:21:10;;;;;;;48.92;44.22;;;19.00;86.50;;;;;;4940091;28;20091;-76
2023/09/09 02:23:40;;;;;;;48.15;43.45;;;19.00;86.50;;;;;;4932190;28;20628;-76
2023/09/09 02:26:05;;;;;;;46.80;42.30;;;19.00;86.50;;;;;;4942537;28;20035;-78
2023/09/09 02:28:31;;;;;;;50.90;45.90;;;18.90;86.70;;;;;;4935253;28;20692;-76
2023/09/09 02:30:57;;;;;;;50.03;45.17;;;19.00;86.60;;;;;;4943437;28;20034;-78
2023/09/09 02:33:22;;;;;;;49.95;45.08;;;18.90;86.50;;;;;;4937419;28;20039;-77
2023/09/09 02:35:48;;;;;;;47.35;42.75;;;18.90;86.50;;;;;;4933582;28;20093;-76
2023/09/09 02:38:14;;;;;;;47.97;43.22;;;18.90;86.40;;;;;;4939527;28;20370;-77
2023/09/09 02:40:39;;;;;;;48.85;44.15;;;18.90;86.30;;;;;;4946091;28;20027;-76
2023/09/09 02:43:05;;;;;;;45.75;41.33;;;18.90;86.20;;;;;;4945121;28;20551;-76
2023/09/09 02:45:31;;;;;;;45.85;41.50;;;18.80;86.30;;;;;;4948823;28;20026;-79
2023/09/09 02:47:56;;;;;;;45.88;41.45;;;18.80;86.50;;;;;;4946919;28;20035;-77
2023/09/09 02:50:23;;;;;;;43.10;38.83;;;18.80;86.60;;;;;;4945338;28;20485;-77
2023/09/09 02:52:49;;;;;;;44.58;40.25;;;18.70;86.60;;;;;;4942179;28;20036;-76
2023/09/09 02:55:14;;;;;;;41.35;37.33;;;18.80;86.50;;;;;;4948132;28;20027;-76
2023/09/09 02:57:40;;;;;;;41.75;37.70;;;18.70;86.40;;;;;;4946141;28;20458;-76
2023/09/09 03:00:09;;;;;;;43.83;39.33;;;18.70;86.40;;;;;;4948002;28;20028;-77
2023/09/09 03:02:35;;;;;;;45.95;41.42;;;18.60;86.70;;;;;;4944410;28;20126;-75
2023/09/09 03:05:03;;;;;;;43.80;39.45;;;18.60;86.90;;;;;;4948443;28;20106;-77
2023/09/09 03:07:28;;;;;;;48.00;43.20;;;18.60;87.00;;;;;;4961742;28;20158;-79
2023/09/09 03:09:54;;;;;;;45.30;40.67;;;18.60;87.00;;;;;;4961931;28;20039;-79
2023/09/09 03:12:20;;;;;;;48.22;43.42;;;18.60;87.30;;;;;;4958925;28;20035;-78
2023/09/09 03:14:49;;;;;;;47.67;42.95;;;18.60;87.40;;;;;;4944710;28;20022;-74
2023/09/09 03:17:17;;;;;;;44.30;40.00;;;18.60;87.40;;;;;;4955629;28;20031;-77
2023/09/09 03:19:43;;;;;;;51.58;46.47;;;18.60;87.40;;;;;;4966245;28;20521;-79
2023/09/09 03:22:08;;;;;;;52.17;46.97;;;18.60;87.50;;;;;;4953443;28;20027;-77
2023/09/09 03:24:34;;;;;;;53.90;48.58;;;18.60;87.60;;;;;;4947155;28;20094;-77
2023/09/09 03:26:59;;;;;;;53.42;48.15;;;18.60;87.70;;;;;;4952148;28;20426;-77
2023/09/09 03:29:25;;;;;;;50.95;45.85;;;18.60;87.70;;;;;;4955855;28;20561;-77
2023/09/09 03:31:51;;;;;;;57.53;51.80;;;18.60;87.80;;;;;;4948351;28;20098;-78
2023/09/09 03:34:17;;;;;;;54.03;48.80;;;18.60;87.90;;;;;;4947565;28;20598;-79
2023/09/09 03:36:42;;;;;;;50.92;45.88;;;18.60;87.90;;;;;;4942530;28;20053;-80
2023/09/09 03:39:09;;;;;;;52.47;47.40;;;18.60;88.00;;;;;;4941154;28;20047;-79
2023/09/09 03:41:35;;;;;;;52.28;47.25;;;18.60;88.00;;;;;;4951768;28;20023;-78
2023/09/09 03:44:01;;;;;;;48.72;44.10;;;18.60;88.00;;;;;;4953143;28;20073;-78
2023/09/09 03:46:27;;;;;;;51.42;46.53;;;18.60;88.00;;;;;;4952108;28;20105;-78
2023/09/09 03:48:53;;;;;;;50.85;45.95;;;18.60;88.00;;;;;;4971870;28;20050;-78
2023/09/09 03:51:19;;;;;;;50.33;45.53;;;18.60;87.90;;;;;;4945300;28;20526;-79
2023/09/09 03:53:45;;;;;;;49.47;44.63;;;18.60;87.80;;;;;;4945181;28;20465;-79
2023/09/09 03:56:11;;;;;;;50.65;45.75;;;18.60;87.70;;;;;;4944021;28;20100;-79
2023/09/09 03:58:36;;;;;;;52.58;47.33;;;18.60;87.70;;;;;;4980873;28;20455;-79
2023/09/09 04:01:07;;;;;;;52.85;47.60;;;18.60;87.50;;;;;;4955585;28;20059;-79
2023/09/09 04:03:34;;;;;;;54.63;49.22;;;18.50;87.40;;;;;;4951239;28;20036;-79
2023/09/09 04:06:06;;;;;;;53.25;48.00;;;18.60;87.60;;;;;;4944086;28;20027;-79
2023/09/09 04:08:32;;;;;;;57.28;51.60;;;18.50;87.70;;;;;;4939624;28;20044;-79
2023/09/09 04:10:58;;;;;;;57.97;52.28;;;18.50;87.90;;;;;;4940737;28;20408;-79
2023/09/09 04:13:23;;;;;;;64.90;57.97;;;18.50;88.10;;;;;;4939153;28;20069;-78
2023/09/09 04:15:51;;;;;;;58.67;52.80;;;18.50;88.20;;;;;;4941611;28;20108;-79
2023/09/09 04:18:17;;;;;;;59.08;53.17;;;18.50;88.50;;;;;;4948965;28;20031;-80
2023/09/09 04:20:44;;;;;;;65.97;59.38;;;18.40;88.60;;;;;;4962709;28;20026;-80
2023/09/09 04:23:10;;;;;;;62.60;56.45;;;18.50;88.80;;;;;;4962944;28;20027;-80
2023/09/09 04:25:36;;;;;;;66.82;60.25;;;18.50;88.80;;;;;;4949657;28;20031;-79
2023/09/09 04:28:01;;;;;;;68.35;60.97;;;18.50;88.90;;;;;;4947869;28;20475;-78
2023/09/09 04:30:27;;;;;;;64.60;58.10;;;18.50;88.90;;;;;;4937913;28;20034;-79
2023/09/09 04:32:54;;;;;;;63.08;56.72;;;18.50;88.90;;;;;;4941664;28;20489;-79
2023/09/09 04:35:19;;;;;;;62.97;56.63;;;18.50;89.00;;;;;;4942050;28;20031;-79
2023/09/09 04:37:45;;;;;;;64.43;58.00;;;18.50;89.00;;;;;;4938703;28;20409;-79
2023/09/09 04:40:11;;;;;;;69.80;62.65;;;18.50;89.10;;;;;;4947678;28;20027;-79
2023/09/09 04:42:37;;;;;;;66.15;59.78;;;18.50;89.10;;;;;;4939347;28;20039;-79
2023/09/09 04:45:04;;;;;;;67.22;60.30;;;18.40;89.30;;;;;;4940986;28;20039;-79
2023/09/09 04:47:30;;;;;;;65.40;58.42;;;18.40;89.40;;;;;;4944127;28;20035;-78
2023/09/09 04:49:57;;;;;;;61.97;55.33;;;18.40;89.50;;;;;;4940530;28;20040;-78
2023/09/09 04:52:23;;;;;;;66.60;59.92;;;18.40;89.50;;;;;;4938152;28;20063;-79
2023/09/09 04:54:49;;;;;;;66.13;59.20;;;18.40;89.50;;;;;;4954744;28;20031;-80
2023/09/09 04:57:15;;;;;;;62.58;56.35;;;18.40;89.50;;;;;;4955663;28;20074;-79
2023/09/09 04:59:41;;;;;;;67.75;61.03;;;18.40;89.50;;;;;;4965455;28;20488;-79
2023/09/09 05:02:07;;;;;;;64.90;58.45;;;18.40;89.50;;;;;;4967557;28;20037;-78
2023/09/09 05:04:33;;;;;;;66.70;59.92;;;18.40;89.60;;;;;;4987610;28;20033;-78
2023/09/09 05:06:59;;;;;;;65.88;59.20;;;18.40;89.70;;;;;;4954554;28;20051;-78
2023/09/09 05:09:24;;;;;;;62.17;55.70;;;18.30;89.80;;;;;;4944944;28;20088;-78
2023/09/09 05:11:50;;;;;;;62.55;56.15;;;18.30;89.90;;;;;;4937920;28;20053;-77
2023/09/09 05:14:16;;;;;;;63.03;56.72;;;18.40;90.00;;;;;;4952515;28;20102;-78
2023/09/09 05:16:42;;;;;;;62.75;56.17;;;18.40;90.10;;;;;;4972941;28;20427;-78
2023/09/09 05:19:07;;;;;;;60.80;54.33;;;18.40;90.10;;;;;;4945783;28;20042;-78
2023/09/09 05:21:33;;;;;;;62.03;55.92;;;18.40;90.00;;;;;;4950278;28;20022;-79
2023/09/09 05:23:58;;;;;;;64.40;57.72;;;18.40;89.80;;;;;;4949692;28;20037;-79
2023/09/09 05:26:24;;;;;;;66.88;59.90;;;18.50;89.70;;;;;;4956466;28;20113;-78
2023/09/09 05:28:50;;;;;;;60.97;54.78;;;18.50;89.60;;;;;;4960974;28;20496;-80
2023/09/09 05:31:16;;;;;;;64.85;58.35;;;18.50;89.60;;;;;;4968135;28;20038;-78
2023/09/09 05:33:42;;;;;;;61.88;55.65;;;18.50;89.60;;;;;;4942567;28;20456;-78
2023/09/09 05:36:08;;;;;;;57.85;52.20;;;18.60;89.60;;;;;;4940746;28;20053;-78
2023/09/09 05:38:35;;;;;;;61.92;55.50;;;18.60;89.60;;;;;;4945463;28;20089;-78
2023/09/09 05:41:01;;;;;;;58.50;52.47;;;18.70;89.50;;;;;;4942473;28;20031;-78
2023/09/09 05:43:26;;;;;;;66.72;59.97;;;18.70;89.50;;;;;;4942414;28;20039;-78
2023/09/09 05:45:55;;;;;;;62.65;56.35;;;18.70;89.30;;;;;;4941812;28;20051;-78
2023/09/09 05:48:21;;;;;;;69.13;61.88;;;18.80;89.30;;;;;;4938017;28;20043;-79
2023/09/09 05:50:46;;;;;;;62.67;56.05;;;18.80;89.20;;;;;;4935704;28;20031;-78
2023/09/09 05:53:12;;;;;;;65.63;58.90;;;18.80;89.00;;;;;;4962279;28;20032;-78
2023/09/09 05:55:38;;;;;;;65.70;58.90;;;18.90;88.80;;;;;;4961335;28;20054;-79
2023/09/09 05:58:04;;;;;;;64.15;57.58;;;18.90;88.80;;;;;;4940385;28;20441;-78
2023/09/09 06:00:29;;;;;;;63.78;57.42;;;18.90;88.80;;;;;;4950004;28;20098;-79
2023/09/09 06:02:55;;;;;;;62.03;55.83;;;18.90;88.90;;;;;;4952373;28;20166;-78
2023/09/09 06:05:21;;;;;;;69.80;62.63;;;19.00;89.00;;;;;;4941809;28;20101;-78
2023/09/09 06:07:47;;;;;;;67.28;60.20;;;19.10;89.00;;;;;;4952919;28;20077;-78
2023/09/09 06:10:13;;;;;;;63.90;57.17;;;19.10;88.90;;;;;;4940456;28;20034;-79
2023/09/09 06:12:38;;;;;;;61.30;55.10;;;19.10;88.90;;;;;;4940903;28;20032;-80
2023/09/09 06:15:04;;;;;;;57.92;51.88;;;19.20;88.70;;;;;;4947422;28;20050;-79
2023/09/09 06:17:30;;;;;;;60.65;54.45;;;19.30;88.60;;;;;;4959258;28;20031;-79
2023/09/09 06:19:56;;;;;;;56.72;50.92;;;19.30;88.60;;;;;;4943742;28;20031;-79
2023/09/09 06:22:21;;;;;;;53.55;47.83;;;19.40;88.40;;;;;;4941656;28;20061;-81
2023/09/09 06:24:47;;;;;;;53.40;48.00;;;19.50;88.50;;;;;;4944394;28;20379;-81
2023/09/09 06:27:13;;;;;;;51.63;46.45;;;19.60;88.30;;;;;;4942732;28;20412;-81
2023/09/09 06:29:38;;;;;;;52.15;46.88;;;19.70;88.20;;;;;;4936633;28;20026;-81
2023/09/09 06:32:06;;;;;;;51.67;46.47;;;19.80;88.00;;;;;;4947876;28;20035;-80
2023/09/09 06:34:32;;;;;;;51.97;46.58;;;19.90;88.00;;;;;;4959151;28;20023;-81
2023/09/09 06:36:57;;;;;;;53.63;48.08;;;20.00;87.80;;;;;;4959390;28;20122;-81
2023/09/09 06:39:23;;;;;;;60.30;53.83;;;20.10;87.50;;;;;;4956633;28;20030;-74
2023/09/09 06:41:50;;;;;;;55.40;49.60;;;20.20;87.20;;;;;;4958224;28;20446;-76
2023/09/09 06:44:15;;;;;;;55.15;49.25;;;20.30;87.10;;;;;;4960148;28;20023;-75
2023/09/09 06:46:41;;;;;;;50.30;45.13;;;20.40;86.80;;;;;;4962577;28;20381;-75
2023/09/09 06:49:07;;;;;;;49.63;44.72;;;20.60;86.70;;;;;;4956739;28;20027;-76
2023/09/09 06:51:32;;;;;;;51.88;46.63;;;20.60;86.50;;;;;;4960366;28;20483;-77
2023/09/09 06:53:58;;;;;;;49.72;44.72;;;20.80;86.20;;;;;;4961565;28;20019;-77
2023/09/09 06:56:23;;;;;;;46.72;42.10;;;20.90;85.80;;;;;;4961223;28;20106;-79
2023/09/09 06:58:50;;;;;;;47.53;42.90;;;21.10;85.80;;;;;;4954594;28;20041;-78
2023/09/09 07:01:16;;;;;;;50.97;45.88;;;21.30;85.50;;;;;;4959266;28;20031;-79
2023/09/09 07:03:42;;;;;;;50.25;45.42;;;21.50;84.80;;;;;;4958539;28;20046;-78
2023/09/09 07:06:07;;;;;;;43.58;39.25;;;21.60;84.40;;;;;;4959404;28;20384;-79
2023/09/09 07:08:33;;;;;;;52.08;46.63;;;21.80;83.90;;;;;;4957540;28;20047;-79
2023/09/09 07:10:59;;;;;;;47.10;42.50;;;22.00;83.10;;;;;;4963881;28;20030;-79
2023/09/09 07:13:24;;;;;;;44.47;40.17;;;22.10;82.60;;;;;;4955972;28;20061;-79
2023/09/09 07:15:53;;;;;;;44.03;39.55;;;22.20;82.30;;;;;;4958883;28;20023;-79
2023/09/09 07:18:20;;;;;;;42.80;38.38;;;22.50;82.10;;;;;;4958048;28;20039;-79
2023/09/09 07:20:46;;;;;;;43.05;38.83;;;22.60;81.20;;;;;;4956787;28;20030;-78
2023/09/09 07:23:14;;;;;;;40.80;36.95;;;22.80;80.70;;;;;;4957468;28;20031;-78
2023/09/09 07:25:44;;;;;;;38.25;34.53;;;23.00;79.80;;;;;;4957151;28;20129;-78
2023/09/09 07:28:11;;;;;;;34.63;31.33;;;23.10;79.60;;;;;;4960602;28;20054;-76
2023/09/09 07:30:37;;;;;;;35.42;32.03;;;23.30;79.20;;;;;;4963897;28;20747;-79
2023/09/09 07:33:03;;;;;;;34.35;30.90;;;23.50;78.10;;;;;;4969408;28;20035;-78
2023/09/09 07:35:29;;;;;;;33.55;30.25;;;23.70;77.00;;;;;;4958382;28;20047;-78
2023/09/09 07:37:55;;;;;;;28.02;25.23;;;23.90;76.30;;;;;;4962460;28;20140;-77
2023/09/09 07:40:21;;;;;;;27.80;24.95;;;24.10;75.30;;;;;;4962361;28;20065;-80
2023/09/09 07:42:48;;;;;;;28.85;26.08;;;24.20;74.40;;;;;;4962455;28;20035;-78
2023/09/09 07:45:14;;;;;;;34.15;30.58;;;24.40;74.00;;;;;;4965149;28;20164;-81
2023/09/09 07:47:40;;;;;;;31.05;27.90;;;24.50;73.50;;;;;;4962767;28;20127;-81
2023/09/09 07:50:06;;;;;;;29.75;26.85;;;24.60;73.30;;;;;;4977001;28;20169;-81
2023/09/09 07:52:32;;;;;;;30.48;27.48;;;24.80;73.10;;;;;;4959862;28;20042;-80
2023/09/09 07:54:57;;;;;;;27.40;24.70;;;25.00;72.40;;;;;;4968462;28;20031;-76
2023/09/09 07:57:23;;;;;;;31.88;28.58;;;25.10;72.10;;;;;;4962311;28;20043;-82
2023/09/09 07:59:49;;;;;;;30.58;27.60;;;25.20;70.30;;;;;;4960403;28;20031;-82
2023/09/09 08:02:15;;;;;;;30.13;27.30;;;25.40;70.90;;;;;;4961611;28;20064;-78
2023/09/09 08:04:40;;;;;;;30.00;27.02;;;25.60;71.00;;;;;;4954963;28;20188;-75
2023/09/09 08:07:06;;;;;;;30.02;26.92;;;25.70;70.60;;;;;;4954490;28;20074;-82
2023/09/09 08:09:32;;;;;;;31.35;28.30;;;25.80;69.60;;;;;;4953246;28;20295;-83
2023/09/09 08:11:58;;;;;;;27.55;24.85;;;25.90;68.00;;;;;;4958092;28;20487;-83
2023/09/09 08:14:24;;;;;;;29.38;25.50;;;26.00;68.60;;;;;;4968683;28;20031;-83
2023/09/09 08:16:50;;;;;;;27.52;24.63;;;26.10;68.30;;;;;;4953569;28;20025;-83
2023/09/09 08:19:16;;;;;;;26.77;24.27;;;26.20;68.00;;;;;;4940475;28;20084;-84
2023/09/09 08:21:42;;;;;;;28.88;25.77;;;26.30;67.90;;;;;;4934883;28;20110;-82
2023/09/09 08:24:07;;;;;;;29.40;26.30;;;26.60;67.70;;;;;;4963375;28;20027;-82
2023/09/09 08:26:33;;;;;;;27.75;24.88;;;26.60;67.20;;;;;;4958252;28;20038;-83
2023/09/09 08:28:59;;;;;;;26.88;24.20;;;26.90;67.60;;;;;;4963491;28;20071;-82
2023/09/09 08:31:25;;;;;;;26.98;24.35;;;27.00;67.50;;;;;;4965242;28;20102;-83
2023/09/09 08:33:50;;;;;;;26.75;23.98;;;27.00;66.80;;;;;;4976913;28;20021;-83
2023/09/09 08:36:16;;;;;;;26.77;24.13;;;27.10;67.10;;;;;;4954840;28;20027;-83
2023/09/09 08:38:42;;;;;;;27.08;24.38;;;27.30;66.30;;;;;;4953047;28;20444;-83
2023/09/09 08:41:25;;;;;;;24.75;22.20;;;27.30;65.90;;;;;;4960718;28;20105;-79
2023/09/09 08:44:08;;;;;;;23.60;21.30;;;27.50;65.90;;;;;;4963812;28;20114;-81
2023/09/09 08:46:35;;;;;;;28.67;25.77;;;27.50;66.30;;;;;;4959556;28;20046;-81
2023/09/09 08:49:05;;;;;;;25.25;22.85;;;27.60;66.20;;;;;;4940515;28;20035;-80
2023/09/09 08:51:55;;;;;;;23.63;21.02;;;27.80;66.50;;;;;;4942979;28;20114;-80
2023/09/09 08:54:21;;;;;;;24.73;21.98;;;27.90;66.40;;;;;;4942958;28;20101;-79
2023/09/09 08:56:48;;;;;;;25.00;22.33;;;28.00;65.40;;;;;;4944457;28;20035;-81
2023/09/09 08:59:14;;;;;;;23.33;21.08;;;27.90;65.70;;;;;;4948147;28;20162;-79
2023/09/09 09:01:41;;;;;;;22.58;20.38;;;28.00;66.70;;;;;;4955290;28;20034;-78
2023/09/09 09:04:07;;;;;;;24.25;21.05;;;28.10;66.40;;;;;;4947309;28;20030;-78
2023/09/09 09:06:34;;;;;;;23.58;21.23;;;28.40;66.30;;;;;;4950992;28;20027;-78
2023/09/09 09:08:59;;;;;;;21.73;19.50;;;28.40;65.50;;;;;;4943893;28;20031;-78
2023/09/09 09:11:25;;;;;;;26.38;23.80;;;28.60;65.40;;;;;;4946945;28;20686;-78
2023/09/09 09:13:51;;;;;;;21.50;19.33;;;28.60;65.10;;;;;;4943959;28;20035;-78
2023/09/09 09:16:18;;;;;;;22.65;20.25;;;28.80;65.40;;;;;;4948896;28;20037;-78
2023/09/09 09:18:44;;;;;;;22.83;20.42;;;28.90;65.00;;;;;;4945324;28;20035;-77
2023/09/09 09:21:10;;;;;;;19.90;17.85;;;29.00;64.70;;;;;;4943854;28;20034;-80
2023/09/09 09:23:43;;;;;;;24.35;20.65;;;29.10;64.80;;;;;;4946171;28;20037;-80
2023/09/09 09:26:30;;;;;;;25.35;22.83;;;29.30;64.60;;;;;;4945220;28;20035;-79
2023/09/09 09:28:56;;;;;;;24.90;22.25;;;29.40;64.40;;;;;;4963421;28;20050;-79
2023/09/09 09:31:23;;;;;;;18.10;16.33;;;29.40;64.30;;;;;;4963555;28;20023;-79
2023/09/09 09:33:53;;;;;;;20.45;18.42;;;29.50;64.30;;;;;;4945919;28;20043;-80
2023/09/09 09:36:23;;;;;;;19.52;17.52;;;29.60;63.60;;;;;;4944801;28;20042;-79
2023/09/09 09:38:50;;;;;;;21.65;19.45;;;29.60;63.10;;;;;;4949903;28;20125;-81
2023/09/09 09:41:20;;;;;;;25.48;21.63;;;29.60;63.70;;;;;;4946458;28;20026;-78
2023/09/09 09:43:47;;;;;;;21.00;18.38;;;29.70;63.20;;;;;;4945222;28;20044;-77
2023/09/09 09:46:15;;;;;;;22.13;19.38;;;29.80;63.70;;;;;;4943406;28;20073;-79
2023/09/09 09:48:41;;;;;;;26.65;20.27;;;29.90;63.10;;;;;;4972011;28;20082;-79
2023/09/09 09:51:07;;;;;;;23.98;17.73;;;30.00;61.50;;;;;;4943348;28;20043;-79
2023/09/09 09:53:47;;;;;;;20.13;16.75;;;29.90;62.80;;;;;;4942724;28;20458;-79
2023/09/09 09:56:17;;;;;;;19.67;17.25;;;30.10;62.60;;;;;;4958456;28;20132;-79
2023/09/09 09:58:48;;;;;;;16.30;14.60;;;30.20;62.90;;;;;;4946060;28;20130;-78
2023/09/09 10:01:14;;;;;;;16.92;13.60;;;30.40;61.60;;;;;;4947191;28;20505;-86
2023/09/09 10:03:46;;;;;;;16.05;13.20;;;30.50;60.60;;;;;;4942132;28;20043;-80
2023/09/09 10:06:17;;;;;;;18.27;12.45;;;30.30;60.90;;;;;;4944187;28;20039;-79
2023/09/09 10:08:48;;;;;;;15.85;12.40;;;30.40;61.20;;;;;;4949356;28;20031;-79
2023/09/09 10:11:17;;;;;;;17.77;12.57;;;30.50;60.90;;;;;;4945298;28;20035;-79
2023/09/09 10:14:01;;;;;;;13.77;12.30;;;30.60;60.70;;;;;;4964042;28;20134;-80
2023/09/09 10:16:29;;;;;;;13.18;11.50;;;30.50;60.60;;;;;;4946213;28;20039;-79
2023/09/09 10:18:56;;;;;;;12.63;11.02;;;30.80;60.90;;;;;;4945541;28;20049;-78
2023/09/09 10:21:24;;;;;;;15.60;11.90;;;30.90;60.50;;;;;;4966436;28;20023;-79
2023/09/09 10:23:50;;;;;;;13.75;10.20;;;31.00;59.60;;;;;;4946929;28;20027;-79
2023/09/09 10:26:17;;;;;;;14.00;10.45;;;31.10;60.10;;;;;;4949054;28;20077;-79
2023/09/09 10:28:44;;;;;;;13.45;9.50;;;31.00;59.30;;;;;;4948858;28;20858;-78
2023/09/09 10:31:13;;;;;;;15.75;8.07;;;31.10;58.80;;;;;;4941356;28;20448;-78
2023/09/09 10:33:45;;;;;;;13.55;8.55;;;31.20;57.80;;;;;;4945773;28;20046;-79
2023/09/09 10:36:14;;;;;;;15.60;10.27;;;31.40;57.80;;;;;;4944067;28;20039;-79
2023/09/09 10:38:40;;;;;;;20.33;10.05;;;31.50;58.90;;;;;;4948589;28;20386;-78
2023/09/09 10:41:08;;;;;;;16.05;10.38;;;31.60;58.90;;;;;;4938875;28;20034;-78
2023/09/09 10:43:34;;;;;;;12.13;9.43;;;31.70;57.80;;;;;;4943002;28;20039;-78
2023/09/09 10:45:59;;;;;;;15.93;9.65;;;31.70;57.70;;;;;;4944854;28;20035;-77
2023/09/09 10:48:27;;;;;;;13.30;8.15;;;31.70;58.10;;;;;;4955027;28;20043;-78
2023/09/09 10:50:53;;;;;;;13.27;9.68;;;31.80;58.60;;;;;;4937997;28;20034;-78
2023/09/09 10:53:25;;;;;;;12.20;8.50;;;31.90;57.10;;;;;;4935462;28;20040;-78
2023/09/09 10:55:59;;;;;;;15.30;7.57;;;32.00;56.60;;;;;;4937896;28;20077;-78
2023/09/09 10:58:33;;;;;;;19.77;8.68;;;31.90;57.30;;;;;;4936947;28;20106;-78
2023/09/09 11:01:02;;;;;;;14.07;8.00;;;32.00;55.70;;;;;;4936831;28;20028;-78
2023/09/09 11:03:37;;;;;;;13.88;8.13;;;32.10;55.90;;;;;;4938369;28;20074;-78
2023/09/09 11:06:04;;;;;;;14.23;7.25;;;32.20;55.70;;;;;;4943090;28;20768;-78
2023/09/09 11:08:35;;;;;;;14.13;6.95;;;32.20;54.60;;;;;;4939501;28;20081;-77
2023/09/09 11:11:12;;;;;;;10.30;6.07;;;32.40;54.20;;;;;;4940005;28;21216;-78
2023/09/09 11:13:42;;;;;;;16.00;6.57;;;32.50;53.70;;;;;;4937956;28;20036;-78
2023/09/09 11:16:41;;;;;;;10.43;5.70;;;32.70;52.00;;;;;;4938419;28;20490;-78
2023/09/09 11:19:08;;;;;;;15.70;6.05;;;32.80;52.60;;;;;;4941823;28;20028;-77
2023/09/09 11:21:48;;;;;;;13.85;6.50;;;32.90;51.50;;;;;;4939740;28;20027;-80
2023/09/09 11:24:14;;;;;;;13.75;6.85;;;32.90;51.30;;;;;;4944648;28;20477;-78
2023/09/09 11:26:45;;;;;;;14.27;6.57;;;33.00;51.80;;;;;;4944675;28;20075;-78
2023/09/09 11:29:11;;;;;;;10.43;6.20;;;33.00;51.70;;;;;;4946125;28;20405;-78
2023/09/09 11:31:37;;;;;;;12.45;5.88;;;33.00;52.60;;;;;;4947436;28;20027;-79
2023/09/09 11:34:04;;;;;;;16.15;6.88;;;33.00;51.10;;;;;;4946551;28;20031;-79
2023/09/09 11:36:30;;;;;;;14.23;6.50;;;33.10;51.00;;;;;;4941818;28;20096;-78
2023/09/09 11:38:59;;;;;;;9.95;6.07;;;33.20;50.70;;;;;;4944893;28;20043;-78
2023/09/09 11:41:27;;;;;;;12.48;6.65;;;33.30;50.80;;;;;;4947458;28;20128;-81
2023/09/09 11:44:04;;;;;;;11.80;5.80;;;33.20;51.30;;;;;;4955601;28;20043;-78
2023/09/09 11:46:39;;;;;;;10.13;5.60;;;33.20;51.50;;;;;;4963424;28;20102;-82
2023/09/09 11:49:05;;;;;;;17.33;5.75;;;33.20;48.90;;;;;;4977619;28;20051;-80
2023/09/09 11:51:33;;;;;;;14.75;5.75;;;33.30;48.80;;;;;;4966661;28;20031;-81
2023/09/09 11:53:59;;;;;;;10.40;5.72;;;33.40;49.60;;;;;;4943255;28;20561;-81
2023/09/09 11:56:25;;;;;;;13.65;5.90;;;33.40;49.80;;;;;;4946984;28;20085;-80
2023/09/09 11:58:52;;;;;;;11.70;6.35;;;33.50;48.70;;;;;;4943439;28;20118;-79
2023/09/09 12:01:19;;;;;;;16.27;5.75;;;33.40;49.70;;;;;;4944807;28;20520;-81
2023/09/09 12:03:45;;;;;;;11.57;5.35;;;33.50;47.20;;;;;;4947184;28;20032;-82
2023/09/09 12:06:11;;;;;;;13.60;5.47;;;33.40;48.70;;;;;;4950310;28;20093;-82
2023/09/09 12:08:37;;;;;;;11.85;5.13;;;33.50;48.80;;;;;;4943081;28;20062;-77
2023/09/09 12:11:05;;;;;;;12.88;5.38;;;33.60;47.90;;;;;;4950762;28;20082;-80
2023/09/09 12:13:32;;;;;;;12.68;5.68;;;33.70;47.60;;;;;;4947480;28;20031;-82
2023/09/09 12:15:58;;;;;;;12.88;5.18;;;33.80;48.00;;;;;;4939926;28;20043;-82
2023/09/09 12:18:24;;;;;;;11.93;5.60;;;33.70;47.90;;;;;;4950960;28;20058;-82
2023/09/09 12:21:03;;;;;;;9.38;5.35;;;33.70;47.80;;;;;;4942035;28;20027;-84
2023/09/09 12:23:34;;;;;;;11.98;5.70;;;33.80;47.20;;;;;;4937200;28;20031;-83
2023/09/09 12:26:20;;;;;;;11.05;5.43;;;34.00;48.10;;;;;;4954031;28;20487;-83
2023/09/09 12:29:10;;;;;;;17.48;5.13;;;33.90;47.30;;;;;;4957452;28;20047;-84